ADDS METAR Data INFO
IDs: Format: Raw Decoded Include TAF

Data at: 0214 UTC 17 Aug 2018

NZAA 170200Z AUTO 26016KT 9999 VCSH FEW023/// BKN090/// 14/12 Q1004 TEMPO 6000 SHRA FEW020TCU
NZAA 170130Z AUTO 26011KT 9999 FEW065/// BKN080/// OVC095/// 14/12 Q1004 NOSIG
NZAA 170100Z AUTO 25010KT 9999 -RA FEW016 BKN027 OVC060 13/11 Q1005 RERA TEMPO 4000 SHRA BKN014 SCT020CB
NZAA 170030Z AUTO 27011KT 9999 -RA SCT025CB BKN034/// BKN041/// 14/11 Q1004 TEMPO 4000 SHRA BKN014
NZAA 170000Z AUTO 30010KT 9999 SCT020CB FEW055/// SCT070/// BKN090/// 15/12 Q1004 TEMPO 4000 SHRA BKN014
NZAA 162330Z AUTO 32008KT 290V350 9999 VCSH BKN050/// OVC085/// 15/13 Q1005 BECMG TL0100 25012KT TEMPO 4000 SHRA BKN014 SCT020CB

TAF NZAA 162309Z 1700/1800 36005KT 9999 -SHRA SCT025 BKN050
  BECMG 1700/1702 25012KT
  TEMPO 1700/1702 4000 SHRA BKN014 SCT020CB
  TEMPO 1712/1716 6000 SHRA FEW020TCU